Time;durP1;ratioP1;P1;durP2;ratioP2;P2;SDS_P1;SDS_P2;PMS_P1;PMS_P2;Temp;Humidity;BMP_temperature;BMP_pressure;BME280_temperature;BME280_humidity;BME280_pressure;Samples;Min_cycle;Max_cycle;Signal;HPM_P1;HPM_P2
2022/10/02 00:00:16;;;;;;;4.95;3.45;;;26.10;57.90;;;;;;4919793;29;20054;-70
2022/10/02 00:03:09;;;;;;;3.63;2.80;;;26.10;58.00;;;;;;4950400;29;20111;-70
2022/10/02 00:05:40;;;;;;;3.53;3.00;;;26.00;58.10;;;;;;4934314;29;20062;-70
2022/10/02 00:08:19;;;;;;;2.67;2.40;;;26.00;58.20;;;;;;4950407;29;20141;-69
2022/10/02 00:10:54;;;;;;;5.40;2.15;;;26.20;58.10;;;;;;4918483;29;20051;-70
2022/10/02 00:13:25;;;;;;;3.45;2.58;;;26.10;58.00;;;;;;4934467;29;20611;-69
2022/10/02 00:15:53;;;;;;;4.53;2.80;;;26.00;58.00;;;;;;5010700;28;20092;-69
2022/10/02 00:18:27;;;;;;;3.17;2.45;;;26.20;58.00;;;;;;5032297;28;20032;-70
2022/10/02 00:21:24;;;;;;;3.05;2.58;;;26.00;58.00;;;;;;5035422;28;20128;-70
2022/10/02 00:23:57;;;;;;;3.47;2.70;;;26.00;58.00;;;;;;5033456;28;20033;-69
2022/10/02 00:26:35;;;;;;;3.55;2.63;;;26.10;58.10;;;;;;5033327;28;20367;-70
2022/10/02 00:29:38;;;;;;;5.47;3.05;;;25.90;57.80;;;;;;5034732;28;20661;-69
2022/10/02 00:32:10;;;;;;;3.60;2.90;;;26.00;58.40;;;;;;5034925;28;20057;-69
2022/10/02 00:35:15;;;;;;;5.10;2.70;;;25.90;58.20;;;;;;5033452;28;20466;-67
2022/10/02 00:38:05;;;;;;;5.05;3.15;;;25.80;58.40;;;;;;4954073;29;20051;-69
2022/10/02 00:41:02;;;;;;;5.32;2.97;;;25.80;58.40;;;;;;4921821;29;20090;-69
2022/10/02 00:43:46;;;;;;;3.10;2.80;;;25.90;58.30;;;;;;4952820;29;20424;-69
2022/10/02 00:46:39;;;;;;;4.45;2.58;;;25.90;58.40;;;;;;4952676;29;20046;-68
2022/10/02 00:49:16;;;;;;;6.75;3.25;;;25.90;58.40;;;;;;4953043;29;20106;-69
2022/10/02 00:52:08;;;;;;;3.80;2.85;;;25.90;58.40;;;;;;4953035;29;20035;-69
2022/10/02 00:55:02;;;;;;;5.77;3.37;;;25.90;58.40;;;;;;4937005;29;20576;-70
2022/10/02 00:57:45;;;;;;;;;;;26.00;58.90;;;;;;4921794;29;20079;-69
2022/10/02 01:00:18;;;;;;;4.38;2.70;;;25.90;58.40;;;;;;4953278;29;19917;-69
2022/10/02 01:03:10;;;;;;;4.40;3.00;;;25.90;58.40;;;;;;4952747;29;20058;-69
2022/10/02 01:05:36;;;;;;;3.55;3.10;;;26.00;58.90;;;;;;4952744;29;20043;-69
2022/10/02 01:08:03;;;;;;;5.15;3.50;;;26.00;58.90;;;;;;4952649;29;20074;-69
2022/10/02 01:10:29;;;;;;;3.83;3.03;;;26.00;59.00;;;;;;4952746;29;20488;-70
2022/10/02 01:12:57;;;;;;;5.05;2.80;;;26.00;59.00;;;;;;4953131;29;20038;-69
2022/10/02 01:15:30;;;;;;;4.85;3.38;;;26.00;59.10;;;;;;5023716;28;20037;-69
2022/10/02 01:17:57;;;;;;;4.25;3.08;;;26.10;59.10;;;;;;5032458;28;20034;-69
2022/10/02 01:20:33;;;;;;;3.42;3.00;;;26.10;59.20;;;;;;5032812;28;20029;-68
2022/10/02 01:23:02;;;;;;;3.50;2.95;;;26.10;59.20;;;;;;5033834;28;20212;-70
2022/10/02 01:25:32;;;;;;;4.68;3.05;;;26.10;59.30;;;;;;5032733;28;20095;-69
2022/10/02 01:27:58;;;;;;;3.72;2.85;;;26.00;59.20;;;;;;5033552;28;20726;-69
2022/10/02 01:30:24;;;;;;;4.00;3.08;;;26.00;59.30;;;;;;5033506;28;20034;-69
2022/10/02 01:32:56;;;;;;;3.40;2.60;;;26.10;59.30;;;;;;5033728;28;20520;-69
2022/10/02 01:35:31;;;;;;;4.20;3.08;;;26.10;59.20;;;;;;5033414;28;20052;-69
2022/10/02 01:38:00;;;;;;;3.10;2.65;;;26.00;59.30;;;;;;5033345;28;20041;-70
2022/10/02 01:40:31;;;;;;;5.85;2.95;;;26.10;59.30;;;;;;5033570;28;20437;-70
2022/10/02 01:43:22;;;;;;;9.25;2.90;;;26.10;59.30;;;;;;5033732;28;20135;-69
2022/10/02 01:46:23;;;;;;;4.45;2.70;;;26.00;59.30;;;;;;5014173;28;20087;-69
2022/10/02 01:49:10;;;;;;;5.22;3.08;;;26.10;59.40;;;;;;5033299;28;20036;-69
2022/10/02 01:51:58;;;;;;;5.15;3.03;;;26.10;59.40;;;;;;5014582;28;20117;-69
2022/10/02 01:54:27;;;;;;;6.28;3.03;;;26.10;59.50;;;;;;5031905;28;20479;-69
2022/10/02 01:57:33;;;;;;;4.25;3.33;;;26.10;59.50;;;;;;5033132;28;20026;-69
2022/10/02 02:00:14;;;;;;;3.92;2.97;;;26.10;59.40;;;;;;5031986;28;20425;-68
2022/10/02 02:03:10;;;;;;;3.75;2.80;;;26.10;59.40;;;;;;5033170;28;20030;-69
2022/10/02 02:05:59;;;;;;;4.40;3.17;;;26.10;59.50;;;;;;5033003;28;20046;-70
2022/10/02 02:08:36;;;;;;;5.32;3.28;;;26.00;59.60;;;;;;5033070;28;20037;-69
2022/10/02 02:11:09;;;;;;;6.93;3.17;;;25.90;59.10;;;;;;5031613;28;20033;-69
2022/10/02 02:14:10;;;;;;;3.97;2.70;;;25.90;59.20;;;;;;5032742;28;20037;-70
2022/10/02 02:16:44;;;;;;;4.93;3.38;;;25.90;59.20;;;;;;4970361;28;20073;-69
2022/10/02 02:19:36;;;;;;;5.40;2.95;;;25.90;59.30;;;;;;4963347;28;20049;-69
2022/10/02 02:22:10;;;;;;;5.20;2.95;;;25.90;59.40;;;;;;4878164;29;20204;-70
2022/10/02 02:24:44;;;;;;;3.60;3.30;;;26.00;59.80;;;;;;4894192;29;20541;-70
2022/10/02 02:27:14;;;;;;;3.45;3.15;;;25.90;59.50;;;;;;4894587;29;20060;-69
2022/10/02 02:29:44;;;;;;;9.43;3.92;;;25.90;59.40;;;;;;4895015;29;20119;-69
2022/10/02 02:32:15;;;;;;;4.60;3.00;;;26.00;59.80;;;;;;4895019;29;20044;-70
2022/10/02 02:34:45;;;;;;;3.65;3.03;;;25.90;59.30;;;;;;4894583;29;20048;-70
2022/10/02 02:37:20;;;;;;;7.38;3.22;;;26.00;59.70;;;;;;4893294;29;20519;-70
2022/10/02 02:39:46;;;;;;;4.07;3.17;;;25.90;59.30;;;;;;4894023;29;20510;-69
2022/10/02 02:42:15;;;;;;;5.60;3.33;;;25.90;59.30;;;;;;4894309;29;20051;-70
2022/10/02 02:44:53;;;;;;;6.95;3.10;;;26.00;59.70;;;;;;4894208;29;20072;-69
2022/10/02 02:47:24;;;;;;;9.10;2.90;;;26.00;59.70;;;;;;4894525;29;20224;-70
2022/10/02 02:49:58;;;;;;;4.35;2.90;;;26.00;59.70;;;;;;4894589;29;20048;-69
2022/10/02 02:52:49;;;;;;;6.20;2.85;;;26.00;59.70;;;;;;4899844;28;20451;-69
2022/10/02 02:55:19;;;;;;;4.05;3.65;;;25.90;59.20;;;;;;4970814;28;20058;-70
2022/10/02 02:57:55;;;;;;;5.18;3.65;;;26.00;59.70;;;;;;4970664;28;20038;-69
2022/10/02 03:00:23;;;;;;;3.90;3.35;;;25.90;59.20;;;;;;5012395;28;20080;-69
2022/10/02 03:02:53;;;;;;;4.05;3.10;;;25.90;59.30;;;;;;5012157;28;20684;-70
2022/10/02 03:05:20;;;;;;;3.85;2.78;;;25.80;59.50;;;;;;5012371;28;20050;-69
2022/10/02 03:07:55;;;;;;;3.70;2.83;;;25.90;59.50;;;;;;5011933;28;20422;-70
2022/10/02 03:10:24;;;;;;;4.35;3.10;;;25.80;59.50;;;;;;5012209;28;20034;-69
2022/10/02 03:13:23;;;;;;;4.72;3.50;;;25.70;59.60;;;;;;5026283;28;20042;-69
2022/10/02 03:16:05;;;;;;;3.80;3.22;;;25.80;59.70;;;;;;4969113;28;20061;-70
2022/10/02 03:18:51;;;;;;;3.20;2.65;;;25.80;59.70;;;;;;4951138;28;20039;-70
2022/10/02 03:21:40;;;;;;;3.25;2.95;;;25.70;59.70;;;;;;4950918;29;20077;-69
2022/10/02 03:24:17;;;;;;;3.53;2.80;;;25.80;59.70;;;;;;4950929;29;20742;-70
2022/10/02 03:26:51;;;;;;;3.33;2.63;;;25.80;59.70;;;;;;4950830;28;20496;-70
2022/10/02 03:29:30;;;;;;;3.00;2.80;;;25.80;59.70;;;;;;4950879;28;20110;-70
2022/10/02 03:31:58;;;;;;;3.90;3.20;;;25.70;59.70;;;;;;4934691;29;20126;-70
2022/10/02 03:34:25;;;;;;;5.50;3.00;;;25.70;59.60;;;;;;4934754;29;20217;-70
2022/10/02 03:36:51;;;;;;;3.75;3.28;;;25.80;59.60;;;;;;4934592;29;20031;-70
2022/10/02 03:39:17;;;;;;;3.38;3.08;;;25.90;59.60;;;;;;4951005;29;20130;-69
2022/10/02 03:41:44;;;;;;;7.00;3.92;;;25.90;59.60;;;;;;4950751;29;20042;-69
2022/10/02 03:44:10;;;;;;;4.88;2.95;;;25.80;59.60;;;;;;4950863;29;20365;-69
2022/10/02 03:46:36;;;;;;;3.92;2.60;;;25.90;59.60;;;;;;4950592;29;20047;-70
2022/10/02 03:49:02;;;;;;;4.05;3.22;;;25.80;59.50;;;;;;4950555;28;20035;-69
2022/10/02 03:51:29;;;;;;;3.38;3.08;;;25.80;59.60;;;;;;4950756;29;20039;-70
2022/10/02 03:53:55;;;;;;;4.72;3.08;;;25.60;59.60;;;;;;5008570;28;20042;-69
2022/10/02 03:56:33;;;;;;;3.45;3.15;;;25.70;59.60;;;;;;4992829;28;20041;-70
2022/10/02 03:59:02;;;;;;;4.07;3.03;;;25.70;59.60;;;;;;5010059;28;20096;-72
2022/10/02 04:01:35;;;;;;;3.22;2.50;;;25.80;59.40;;;;;;5011280;28;20502;-71
2022/10/02 04:04:16;;;;;;;5.10;2.60;;;25.90;59.20;;;;;;5011401;28;20046;-70
2022/10/02 04:06:49;;;;;;;2.90;2.60;;;25.70;59.30;;;;;;5011149;28;20030;-73
2022/10/02 04:09:43;;;;;;;2.88;2.60;;;25.70;59.50;;;;;;5011183;28;20026;-69
2022/10/02 04:12:21;;;;;;;3.80;2.40;;;25.90;59.20;;;;;;5015800;28;20359;-67
2022/10/02 04:14:56;;;;;;;2.50;2.30;;;25.80;59.40;;;;;;5030708;28;20041;-72
2022/10/02 04:17:31;;;;;;;2.20;2.00;;;25.90;59.60;;;;;;5031101;28;20033;-74
2022/10/02 04:20:17;;;;;;;4.40;2.20;;;26.00;62.90;;;;;;5030894;28;20037;-73
2022/10/02 04:23:00;;;;;;;2.22;2.03;;;26.10;63.90;;;;;;5030331;28;20112;-74
2022/10/02 04:25:32;;;;;;;2.75;2.55;;;26.40;65.70;;;;;;4988038;28;20136;-71
2022/10/02 04:28:13;;;;;;;2.85;2.38;;;26.40;63.50;;;;;;4987886;28;20054;-72
2022/10/02 04:30:39;;;;;;;2.60;2.40;;;26.60;60.60;;;;;;4988056;28;20062;-72
2022/10/02 04:33:18;;;;;;;2.70;2.05;;;26.50;59.60;;;;;;4988521;28;20110;-70
2022/10/02 04:36:10;;;;;;;3.83;1.70;;;26.30;59.30;;;;;;4972502;28;20547;-72
2022/10/02 04:39:03;;;;;;;1.60;1.50;;;26.30;59.10;;;;;;4988288;28;20038;-73
2022/10/02 04:41:56;;;;;;;1.67;1.58;;;26.40;58.70;;;;;;4988405;28;20065;-73
2022/10/02 04:44:41;;;;;;;1.25;1.15;;;26.30;58.40;;;;;;4988296;28;20523;-72
2022/10/02 04:47:40;;;;;;;1.85;1.17;;;26.30;58.10;;;;;;4988176;28;20121;-73
2022/10/02 04:50:26;;;;;;;1.42;1.33;;;26.40;57.90;;;;;;4988769;28;20042;-73
2022/10/02 04:53:19;;;;;;;1.60;1.20;;;26.40;57.80;;;;;;4988904;28;20035;-73
2022/10/02 04:56:09;;;;;;;1.08;1.00;;;26.30;57.50;;;;;;4981168;28;20046;-74
2022/10/02 04:58:53;;;;;;;1.38;1.27;;;26.30;57.50;;;;;;5012519;28;20534;-74
2022/10/02 05:01:45;;;;;;;0.60;0.55;;;26.40;57.70;;;;;;5031827;28;20128;-74
2022/10/02 05:04:26;;;;;;;1.60;0.90;;;26.20;57.50;;;;;;5033521;28;20049;-76
2022/10/02 05:06:58;;;;;;;0.90;0.90;;;26.20;57.30;;;;;;5034142;28;20049;-71
2022/10/02 05:10:01;;;;;;;0.35;0.32;;;26.20;56.70;;;;;;5030828;28;20103;-72
2022/10/02 05:12:27;;;;;;;0.70;0.70;;;26.30;55.60;;;;;;4995899;28;20113;-72
2022/10/02 05:14:58;;;;;;;0.95;0.80;;;26.20;54.50;;;;;;4995499;28;20133;-72
2022/10/02 05:17:30;;;;;;;0.47;0.47;;;26.20;54.40;;;;;;5014279;28;20063;-71
2022/10/02 05:20:14;;;;;;;0.77;0.77;;;26.10;54.50;;;;;;5014346;28;20026;-72
2022/10/02 05:22:53;;;;;;;3.10;0.95;;;26.20;54.80;;;;;;5014248;28;20406;-72
2022/10/02 05:25:38;;;;;;;1.48;1.27;;;26.00;53.90;;;;;;5014406;28;20133;-71
2022/10/02 05:28:23;;;;;;;2.30;2.10;;;26.10;54.20;;;;;;5013584;28;20522;-71
2022/10/02 05:31:03;;;;;;;0.47;0.47;;;26.20;53.60;;;;;;5013198;28;20375;-72
2022/10/02 05:33:59;;;;;;;1.77;1.45;;;26.00;53.70;;;;;;5012759;28;20030;-72
2022/10/02 05:36:40;;;;;;;2.20;1.70;;;26.10;52.70;;;;;;5013260;28;20046;-71
2022/10/02 05:39:32;;;;;;;4.90;2.20;;;26.00;52.60;;;;;;5012967;28;20038;-68
2022/10/02 05:42:21;;;;;;;2.90;2.25;;;25.90;50.80;;;;;;4996246;28;20045;-67
2022/10/02 05:44:58;;;;;;;2.58;2.33;;;26.00;51.90;;;;;;5013531;28;20037;-68
2022/10/02 05:47:29;;;;;;;1.75;1.40;;;26.10;57.20;;;;;;5013399;28;20026;-69
2022/10/02 05:50:01;;;;;;;4.55;2.35;;;26.10;56.70;;;;;;4995931;28;20530;-69
2022/10/02 05:52:54;;;;;;;3.63;2.58;;;26.00;57.80;;;;;;5013547;28;20045;-68
2022/10/02 05:55:43;;;;;;;3.50;2.20;;;26.10;58.20;;;;;;5010136;28;20038;-69
2022/10/02 05:58:28;;;;;;;3.38;2.60;;;26.20;56.80;;;;;;5013137;28;20072;-67
2022/10/02 06:01:04;;;;;;;3.17;2.50;;;26.00;58.20;;;;;;5013482;28;20034;-67
2022/10/02 06:04:15;;;;;;;3.15;2.45;;;26.00;58.10;;;;;;5017277;28;20498;-68
2022/10/02 06:06:50;;;;;;;2.38;2.17;;;26.10;57.80;;;;;;4955334;28;20391;-68
2022/10/02 06:09:42;;;;;;;2.15;2.00;;;26.00;58.60;;;;;;4971587;28;20031;-67
2022/10/02 06:12:29;;;;;;;2.50;1.83;;;26.10;58.60;;;;;;4970359;28;20043;-68
2022/10/02 06:15:05;;;;;;;2.42;1.92;;;26.00;58.40;;;;;;4971148;28;20043;-68
2022/10/02 06:17:38;;;;;;;6.22;2.30;;;26.10;58.10;;;;;;4971130;28;20488;-68
2022/10/02 06:20:20;;;;;;;2.63;2.38;;;26.00;58.60;;;;;;4971069;28;20027;-69
2022/10/02 06:23:15;;;;;;;5.95;3.50;;;26.10;58.70;;;;;;4970836;28;20515;-70
2022/10/02 06:25:53;;;;;;;5.38;2.92;;;26.10;58.40;;;;;;4970763;28;20071;-68
2022/10/02 06:28:32;;;;;;;3.83;2.92;;;26.00;57.80;;;;;;4969998;28;20054;-69
2022/10/02 06:31:09;;;;;;;5.32;2.90;;;25.90;57.90;;;;;;4954677;28;20120;-69
2022/10/02 06:33:35;;;;;;;4.40;3.10;;;25.80;55.70;;;;;;4969085;28;20042;-68
2022/10/02 06:36:11;;;;;;;4.05;3.08;;;25.70;53.10;;;;;;4970114;28;20039;-69
2022/10/02 06:39:02;;;;;;;3.13;2.38;;;25.80;57.20;;;;;;4969297;28;20031;-69
2022/10/02 06:41:47;;;;;;;4.15;2.40;;;25.80;61.30;;;;;;4967896;28;20039;-67
2022/10/02 06:44:18;;;;;;;3.88;2.50;;;26.20;66.10;;;;;;5031047;28;20037;-67
2022/10/02 06:47:09;;;;;;;4.68;2.45;;;26.30;62.40;;;;;;5029239;28;20442;-70
2022/10/02 06:50:13;;;;;;;4.43;2.33;;;26.20;58.70;;;;;;5028916;28;20087;-70
2022/10/02 06:52:52;;;;;;;1.92;1.63;;;26.20;58.40;;;;;;4971559;28;20455;-71
2022/10/02 06:55:27;;;;;;;4.97;1.67;;;26.20;57.90;;;;;;4987177;28;20058;-70
2022/10/02 06:58:02;;;;;;;2.03;1.90;;;26.20;57.80;;;;;;4988458;28;20030;-71
2022/10/02 07:00:34;;;;;;;2.17;1.20;;;26.10;57.10;;;;;;4985747;28;20030;-70
2022/10/02 07:03:21;;;;;;;5.03;1.57;;;26.20;58.40;;;;;;4988264;28;20085;-70
2022/10/02 07:06:12;;;;;;;1.50;1.40;;;26.20;56.90;;;;;;4986703;28;20288;-70
2022/10/02 07:08:53;;;;;;;1.38;1.23;;;26.20;57.50;;;;;;4972326;28;20113;-70
2022/10/02 07:11:47;;;;;;;1.65;1.55;;;26.10;57.80;;;;;;4989129;28;20050;-72
2022/10/02 07:14:32;;;;;;;2.00;1.17;;;26.10;57.20;;;;;;4972182;28;20104;-70
2022/10/02 07:17:48;;;;;;;1.08;0.93;;;26.20;57.60;;;;;;4989306;28;20049;-69
2022/10/02 07:20:52;;;;;;;1.05;0.98;;;26.30;56.40;;;;;;4880121;29;20120;-70
2022/10/02 07:23:27;;;;;;;6.18;1.02;;;26.20;56.10;;;;;;4862734;29;20567;-70
2022/10/02 07:26:22;;;;;;;1.45;1.35;;;26.20;56.50;;;;;;4861034;29;20049;-71
2022/10/02 07:29:14;;;;;;;0.95;0.95;;;26.30;57.60;;;;;;4884618;29;20047;-71
2022/10/02 07:32:14;;;;;;;0.90;0.90;;;26.20;55.60;;;;;;4882885;29;20120;-71
2022/10/02 07:34:54;;;;;;;1.25;1.15;;;26.20;54.20;;;;;;4891105;29;20402;-71
2022/10/02 07:37:23;;;;;;;0.93;0.93;;;26.20;50.60;;;;;;4893612;29;20052;-70
2022/10/02 07:40:29;;;;;;;1.55;1.20;;;26.20;50.60;;;;;;4892981;29;20107;-71
2022/10/02 07:43:18;;;;;;;2.05;1.20;;;26.10;52.50;;;;;;4874746;29;20463;-72
2022/10/02 07:46:22;;;;;;;0.90;0.90;;;26.10;51.90;;;;;;4859644;29;20045;-71
2022/10/02 07:49:00;;;;;;;1.08;1.00;;;26.10;52.80;;;;;;4875019;29;20049;-68
2022/10/02 07:51:55;;;;;;;1.23;1.02;;;26.10;52.90;;;;;;4875261;29;20045;-71
2022/10/02 07:54:37;;;;;;;0.80;0.63;;;26.20;52.80;;;;;;4883170;29;20040;-72
2022/10/02 07:57:31;;;;;;;1.58;1.10;;;26.00;52.50;;;;;;4899305;29;20127;-72
2022/10/02 08:00:11;;;;;;;1.85;0.90;;;26.10;53.30;;;;;;4953904;28;20046;-68
2022/10/02 08:02:59;;;;;;;0.90;0.90;;;26.00;53.20;;;;;;5015943;28;20033;-67
2022/10/02 08:05:43;;;;;;;0.95;0.88;;;26.00;52.80;;;;;;5026465;28;20057;-67
2022/10/02 08:08:16;;;;;;;2.15;0.88;;;26.10;54.10;;;;;;5028224;28;20037;-66
2022/10/02 08:10:47;;;;;;;0.73;0.73;;;26.10;53.30;;;;;;5030445;28;20045;-64
2022/10/02 08:13:19;;;;;;;0.75;0.68;;;26.20;53.80;;;;;;5027983;28;20025;-67
2022/10/02 08:15:50;;;;;;;0.47;0.47;;;26.10;53.80;;;;;;5030156;28;20060;-72
2022/10/02 08:18:24;;;;;;;1.25;1.10;;;26.10;53.90;;;;;;5029840;28;20578;-72
2022/10/02 08:20:51;;;;;;;2.22;0.80;;;26.20;55.60;;;;;;5031357;28;20033;-71
2022/10/02 08:23:20;;;;;;;2.30;1.10;;;26.20;55.60;;;;;;5030965;28;20048;-71
2022/10/02 08:26:08;;;;;;;2.58;1.00;;;26.10;55.60;;;;;;4995526;28;20123;-70
2022/10/02 08:29:00;;;;;;;0.52;0.52;;;26.10;55.50;;;;;;5030774;28;20052;-70
2022/10/02 08:31:26;;;;;;;0.88;0.80;;;26.20;55.10;;;;;;5030725;28;20037;-71
2022/10/02 08:33:52;;;;;;;1.02;0.73;;;26.20;55.40;;;;;;5030254;28;20014;-71
2022/10/02 08:37:08;;;;;;;0.90;0.82;;;26.10;55.50;;;;;;5032023;28;20048;-69
2022/10/02 08:39:50;;;;;;;1.05;0.82;;;26.20;54.50;;;;;;4952990;29;20114;-65
2022/10/02 08:42:46;;;;;;;0.60;0.60;;;26.20;55.50;;;;;;4948851;29;20467;-72
2022/10/02 08:46:05;;;;;;;2.92;0.60;;;26.10;50.80;;;;;;4951159;29;20123;-71
2022/10/02 08:48:39;;;;;;;0.63;0.63;;;26.00;50.00;;;;;;4850429;29;20050;-70
2022/10/02 08:51:17;;;;;;;2.53;0.70;;;26.00;47.70;;;;;;4858819;29;20125;-71
2022/10/02 08:54:14;;;;;;;1.95;0.40;;;25.90;50.20;;;;;;4838643;29;20072;-69
2022/10/02 08:57:17;;;;;;;1.70;0.98;;;25.80;51.20;;;;;;4848164;29;20094;-72
2022/10/02 09:00:05;;;;;;;1.58;0.80;;;25.80;49.10;;;;;;4850012;29;20054;-67
2022/10/02 09:02:37;;;;;;;0.75;0.60;;;25.70;48.50;;;;;;4849795;29;20054;-69
2022/10/02 09:05:36;;;;;;;0.60;0.60;;;25.80;54.30;;;;;;4841979;29;20061;-71
2022/10/02 09:08:35;;;;;;;0.50;0.50;;;26.20;53.90;;;;;;4823180;29;20069;-69
2022/10/02 09:11:07;;;;;;;0.88;0.88;;;26.30;53.40;;;;;;4823155;29;20042;-68
2022/10/02 09:13:42;;;;;;;0.80;0.80;;;26.30;54.30;;;;;;4840378;29;20049;-70
2022/10/02 09:16:28;;;;;;;0.60;0.60;;;26.40;51.90;;;;;;4896300;29;20807;-67
2022/10/02 09:19:02;;;;;;;1.40;1.30;;;26.40;52.90;;;;;;4900468;29;20040;-72
2022/10/02 09:21:40;;;;;;;6.07;0.88;;;26.40;45.30;;;;;;4917893;29;20027;-73
2022/10/02 09:24:34;;;;;;;1.25;1.05;;;26.20;44.30;;;;;;4944171;28;20177;-73
2022/10/02 09:27:03;;;;;;;1.27;0.75;;;26.10;47.10;;;;;;4994480;28;20034;-71
2022/10/02 09:30:00;;;;;;;2.03;1.23;;;26.00;48.30;;;;;;5010018;28;20364;-73
2022/10/02 09:32:53;;;;;;;0.60;0.60;;;25.90;46.70;;;;;;5008124;28;20038;-74
2022/10/02 09:35:53;;;;;;;2.72;1.58;;;26.00;49.60;;;;;;5012310;28;20025;-74
2022/10/02 09:38:44;;;;;;;3.10;1.40;;;26.10;51.90;;;;;;4993628;28;20045;-74
2022/10/02 09:41:54;;;;;;;6.45;3.53;;;26.20;52.50;;;;;;5013615;28;20048;-71
2022/10/02 09:44:42;;;;;;;8.93;2.30;;;26.30;52.80;;;;;;5011015;28;20026;-77
2022/10/02 09:47:40;;;;;;;7.55;2.67;;;26.50;51.70;;;;;;5011887;28;20053;-73
2022/10/02 09:50:12;;;;;;;3.15;2.17;;;26.60;51.60;;;;;;5010655;28;20045;-72
2022/10/02 09:52:41;;;;;;;6.72;1.08;;;27.00;55.50;;;;;;4977784;28;20065;-72
2022/10/02 09:55:37;;;;;;;4.93;1.77;;;27.40;58.90;;;;;;4994859;28;20038;-71
2022/10/02 09:58:12;;;;;;;6.40;1.30;;;27.80;53.10;;;;;;4999901;28;20142;-73
2022/10/02 10:00:42;;;;;;;1.13;0.98;;;27.80;49.20;;;;;;5009740;28;20033;-75
2022/10/02 10:03:26;;;;;;;1.67;1.00;;;27.80;56.20;;;;;;5014132;28;20042;-73
2022/10/02 10:05:58;;;;;;;1.60;1.20;;;28.10;44.30;;;;;;5033440;28;20030;-73
2022/10/02 10:08:53;;;;;;;1.85;1.35;;;28.40;49.90;;;;;;5032188;28;20214;-73
2022/10/02 10:11:28;;;;;;;1.25;1.10;;;28.50;47.40;;;;;;5033332;28;20041;-72
2022/10/02 10:14:11;;;;;;;2.67;1.25;;;28.40;40.90;;;;;;5031857;28;20087;-71
2022/10/02 10:17:18;;;;;;;2.28;0.88;;;27.90;43.70;;;;;;5024229;28;20017;-72
2022/10/02 10:20:11;;;;;;;1.40;1.13;;;27.70;41.50;;;;;;4951882;29;20240;-73
2022/10/02 10:22:50;;;;;;;0.90;0.90;;;27.60;45.40;;;;;;4952125;29;20032;-72
2022/10/02 10:25:37;;;;;;;6.85;1.60;;;27.50;43.50;;;;;;4935636;29;20043;-71
2022/10/02 10:28:21;;;;;;;1.42;0.88;;;27.50;40.70;;;;;;4941178;29;20122;-71
2022/10/02 10:30:55;;;;;;;8.73;2.08;;;27.20;43.20;;;;;;4951736;29;20051;-72
2022/10/02 10:33:54;;;;;;;2.70;1.58;;;27.30;44.40;;;;;;4951734;29;20102;-72
2022/10/02 10:40:07;;;;;;;1.23;1.13;;;27.00;45.20;;;;;;4951064;29;20077;-71
2022/10/02 10:42:58;;;;;;;1.92;0.93;;;27.00;43.60;;;;;;4946063;29;20019;-71
2022/10/02 10:45:51;;;;;;;1.00;1.00;;;26.90;42.80;;;;;;4948769;29;20121;-72
2022/10/02 10:48:50;;;;;;;1.15;1.00;;;26.80;48.90;;;;;;4937016;29;20035;-71
2022/10/02 10:51:32;;;;;;;1.50;0.95;;;26.90;50.30;;;;;;4950110;29;20051;-71
2022/10/02 10:54:21;;;;;;;0.57;0.50;;;27.10;47.00;;;;;;4935117;29;20046;-72
2022/10/02 10:57:15;;;;;;;0.80;0.80;;;27.10;43.70;;;;;;4998216;28;20033;-71
2022/10/02 10:59:50;;;;;;;1.75;0.70;;;27.20;42.00;;;;;;5030759;28;20443;-71
2022/10/02 11:02:46;;;;;;;0.88;0.80;;;27.00;39.50;;;;;;5031523;28;20040;-72
2022/10/02 11:05:54;;;;;;;2.35;0.80;;;26.90;38.90;;;;;;5022092;28;20069;-72
2022/10/02 11:08:42;;;;;;;0.65;0.60;;;27.00;38.20;;;;;;5022595;28;20623;-71
2022/10/02 11:11:49;;;;;;;1.00;0.35;;;26.90;37.20;;;;;;5001144;28;20042;-70
2022/10/02 11:14:25;;;;;;;0.60;0.60;;;26.90;35.80;;;;;;5021418;28;20099;-72
2022/10/02 11:16:57;;;;;;;0.45;0.45;;;26.80;35.80;;;;;;5002066;28;20033;-70
2022/10/02 11:19:32;;;;;;;0.77;0.77;;;26.70;35.70;;;;;;5020352;28;20025;-71
2022/10/02 11:22:17;;;;;;;0.40;0.40;;;26.80;36.20;;;;;;5020267;28;20025;-71
2022/10/02 11:24:52;;;;;;;0.80;0.80;;;26.70;36.80;;;;;;5022220;28;20105;-72
2022/10/02 11:27:46;;;;;;;2.28;0.80;;;26.70;37.40;;;;;;5022291;28;20030;-71
2022/10/02 11:30:37;;;;;;;1.67;0.90;;;26.60;38.80;;;;;;5018734;28;20045;-73
2022/10/02 11:33:25;;;;;;;0.90;0.90;;;26.50;36.30;;;;;;5019888;28;20036;-68
2022/10/02 11:36:10;;;;;;;0.75;0.60;;;26.60;38.70;;;;;;5018514;28;20029;-68
2022/10/02 11:39:03;;;;;;;1.25;0.88;;;26.40;40.60;;;;;;5021105;28;20064;-69
2022/10/02 11:41:44;;;;;;;;;;;26.70;42.00;;;;;;5019817;28;20029;-68
2022/10/02 11:44:52;;;;;;;1.35;0.98;;;26.80;40.50;;;;;;5001078;28;19909;-69
2022/10/02 11:47:27;;;;;;;0.63;0.63;;;26.50;38.60;;;;;;4924342;29;20064;-67
2022/10/02 11:50:02;;;;;;;0.60;0.60;;;26.60;38.80;;;;;;4940638;29;20136;-70
2022/10/02 11:52:54;;;;;;;1.40;0.70;;;26.60;39.30;;;;;;4906642;29;20071;-66
2022/10/02 11:56:13;;;;;;;2.65;1.45;;;26.50;41.70;;;;;;4902076;29;20822;-70
2022/10/02 11:58:47;;;;;;;2.05;0.77;;;26.60;42.00;;;;;;4879816;29;20177;-70
2022/10/02 12:01:20;;;;;;;0.90;0.90;;;26.60;42.20;;;;;;4902751;29;20051;-67
2022/10/02 12:04:09;;;;;;;0.80;0.80;;;26.50;39.90;;;;;;4894378;29;20056;-67
2022/10/02 12:06:43;;;;;;;0.70;0.70;;;26.50;39.80;;;;;;4920499;29;20159;-67
2022/10/02 12:09:39;;;;;;;1.27;0.80;;;26.40;39.70;;;;;;4891436;29;20050;-67
2022/10/02 12:12:31;;;;;;;1.13;0.75;;;26.30;39.50;;;;;;4926987;29;20143;-66
2022/10/02 12:15:09;;;;;;;1.10;1.00;;;26.40;39.20;;;;;;4928847;29;20028;-66
2022/10/02 12:17:41;;;;;;;1.65;1.55;;;26.30;39.50;;;;;;4926821;29;20501;-66
2022/10/02 12:27:11;;;;;;;1.15;1.05;;;26.20;39.30;;;;;;4967484;28;20035;-66
2022/10/02 12:29:43;;;;;;;;;;;26.20;39.00;;;;;;4968257;28;20493;-66
2022/10/02 12:32:19;;;;;;;1.17;0.80;;;26.20;39.00;;;;;;4980982;28;20304;-65
2022/10/02 12:35:22;;;;;;;0.82;0.82;;;26.10;39.00;;;;;;5005767;28;20030;-64
2022/10/02 12:37:58;;;;;;;1.80;0.85;;;26.10;38.40;;;;;;5006277;28;20037;-65
2022/10/02 12:40:54;;;;;;;3.45;0.80;;;26.00;39.30;;;;;;5006784;28;20038;-66
2022/10/02 12:43:45;;;;;;;0.50;0.50;;;25.90;38.30;;;;;;5007485;28;20030;-66
2022/10/02 12:46:22;;;;;;;0.50;0.50;;;25.90;40.10;;;;;;5008208;28;20510;-64
2022/10/02 12:48:54;;;;;;;2.88;0.80;;;25.80;38.50;;;;;;5007746;28;20060;-66
2022/10/02 12:51:47;;;;;;;1.02;0.60;;;25.80;39.90;;;;;;5011442;28;20157;-65
2022/10/02 12:54:46;;;;;;;1.13;0.88;;;25.80;39.90;;;;;;5008329;28;20030;-66
2022/10/02 13:00:15;;;;;;;0.50;0.50;;;25.80;39.70;;;;;;5007555;28;20125;-66
2022/10/02 13:02:58;;;;;;;0.63;0.57;;;25.80;39.90;;;;;;5005821;28;20375;-66
2022/10/02 13:05:50;;;;;;;1.70;0.47;;;25.70;39.20;;;;;;5035544;28;20072;-66
2022/10/02 13:08:47;;;;;;;0.40;0.40;;;25.60;40.10;;;;;;5042709;28;20291;-66
2022/10/02 13:11:43;;;;;;;1.48;0.40;;;25.60;40.20;;;;;;5035285;28;20037;-66
2022/10/02 13:14:16;;;;;;;2.63;0.60;;;25.50;42.00;;;;;;5034845;28;20124;-67
2022/10/02 13:16:45;;;;;;;0.30;0.30;;;25.40;40.80;;;;;;5036362;28;20039;-65
2022/10/02 13:19:34;;;;;;;1.40;0.40;;;25.50;41.60;;;;;;5036696;28;20435;-64
2022/10/02 13:22:10;;;;;;;0.30;0.30;;;25.40;41.30;;;;;;4970597;28;20504;-65
2022/10/02 13:24:49;;;;;;;1.05;0.40;;;25.40;42.40;;;;;;4969413;28;20051;-65
2022/10/02 13:27:36;;;;;;;0.40;0.40;;;25.30;42.20;;;;;;4939536;28;20110;-66
2022/10/02 13:30:18;;;;;;;0.43;0.43;;;25.30;41.00;;;;;;4972133;28;20034;-66
2022/10/02 13:33:07;;;;;;;0.50;0.50;;;25.40;41.90;;;;;;4971941;28;20057;-66
2022/10/02 13:35:36;;;;;;;1.55;0.50;;;25.30;41.40;;;;;;4971863;28;20137;-66
2022/10/02 13:38:07;;;;;;;0.40;0.40;;;25.20;43.90;;;;;;4971821;28;20563;-65
2022/10/02 13:40:49;;;;;;;0.38;0.38;;;25.20;45.60;;;;;;4954990;28;20043;-65
2022/10/02 13:43:15;;;;;;;0.98;0.50;;;25.30;45.60;;;;;;4969355;28;20031;-66
2022/10/02 13:45:55;;;;;;;1.33;0.68;;;25.30;46.30;;;;;;4939424;28;20043;-66
2022/10/02 13:48:39;;;;;;;0.50;0.50;;;25.40;46.10;;;;;;4970935;28;20055;-65
2022/10/02 13:51:30;;;;;;;4.10;0.60;;;25.50;46.10;;;;;;4971448;28;20034;-66
2022/10/02 13:54:15;;;;;;;0.85;0.68;;;25.50;45.80;;;;;;4969416;28;20547;-66
2022/10/02 13:56:55;;;;;;;1.77;0.70;;;25.50;45.80;;;;;;4971512;28;20101;-68
2022/10/02 13:59:33;;;;;;;0.70;0.70;;;25.40;47.10;;;;;;5010124;28;20052;-67
2022/10/02 14:02:28;;;;;;;0.73;0.73;;;25.40;47.70;;;;;;5031351;28;20045;-68
2022/10/02 14:05:36;;;;;;;1.30;1.20;;;25.50;47.70;;;;;;4949271;28;20070;-66
2022/10/02 14:08:35;;;;;;;4.70;1.35;;;25.40;46.70;;;;;;4935816;29;20071;-65
2022/10/02 14:11:10;;;;;;;1.30;0.90;;;25.60;51.30;;;;;;4933494;29;20044;-66
2022/10/02 14:13:42;;;;;;;0.90;0.90;;;25.90;53.50;;;;;;4951930;28;20027;-65
2022/10/02 14:16:26;;;;;;;2.45;0.70;;;26.40;54.80;;;;;;4935825;29;20035;-66
2022/10/02 14:19:16;;;;;;;0.68;0.68;;;26.40;50.20;;;;;;4949405;29;20118;-66